createdAt,value
2022-09-28T00:01:22.662Z,10.68
2022-09-28T00:03:52.584Z,10.66
2022-09-28T00:06:24.112Z,10.63
2022-09-28T00:08:51.623Z,10.61
2022-09-28T00:11:21.072Z,10.56
2022-09-28T00:13:56.161Z,10.49
2022-09-28T00:16:29.570Z,10.45
2022-09-28T00:18:57.336Z,10.42
2022-09-28T00:21:28.151Z,10.39
2022-09-28T00:24:16.777Z,10.35
2022-09-28T00:26:56.198Z,10.31
2022-09-28T00:29:41.640Z,10.30
2022-09-28T00:32:13.689Z,10.27
2022-09-28T00:34:48.757Z,10.24
2022-09-28T00:37:16.125Z,10.20
2022-09-28T00:39:43.780Z,10.13
2022-09-28T00:42:17.379Z,10.07
2022-09-28T00:44:55.856Z,10.01
2022-09-28T00:47:51.580Z,9.93
2022-09-28T00:50:28.659Z,9.88
2022-09-28T00:53:21.287Z,9.85
2022-09-28T00:55:54.401Z,9.78
2022-09-28T00:58:27.260Z,9.74
2022-09-28T01:00:57.852Z,9.72
2022-09-28T01:03:28.549Z,9.71
2022-09-28T01:05:58.110Z,9.69
2022-09-28T01:08:29.155Z,9.66
2022-09-28T01:10:59.103Z,9.64
2022-09-28T01:13:27.025Z,9.61
2022-09-28T01:16:21.612Z,9.62
2022-09-28T01:19:17.722Z,9.62
2022-09-28T01:21:44.683Z,9.62
2022-09-28T01:24:24.875Z,9.62
2022-09-28T01:27:10.979Z,9.62
2022-09-28T01:29:46.882Z,9.63
2022-09-28T01:32:22.759Z,9.65
2022-09-28T01:35:02.946Z,9.65
2022-09-28T01:38:04.678Z,9.65
2022-09-28T01:40:34.289Z,9.66
2022-09-28T01:43:10.717Z,9.65
2022-09-28T01:45:48.681Z,9.67
2022-09-28T01:48:24.422Z,9.68
2022-09-28T01:50:57.509Z,9.69
2022-09-28T01:53:41.004Z,9.72
2022-09-28T01:56:17.383Z,9.76
2022-09-28T01:59:01.130Z,9.85
2022-09-28T02:01:38.969Z,9.90
2022-09-28T02:04:18.209Z,9.89
2022-09-28T02:07:28.872Z,9.89
2022-09-28T02:10:00.444Z,9.84
2022-09-28T02:12:35.724Z,9.83
2022-09-28T02:15:20.394Z,9.81
2022-09-28T02:17:47.930Z,9.81
2022-09-28T02:20:16.584Z,9.81
2022-09-28T02:22:53.394Z,9.78
2022-09-28T02:26:03.391Z,9.78
2022-09-28T02:28:31.137Z,9.83
2022-09-28T02:30:58.199Z,9.86
2022-09-28T02:33:31.672Z,9.82
2022-09-28T02:36:00.538Z,9.77
2022-09-28T02:38:27.700Z,9.75
2022-09-28T02:41:21.321Z,9.76
2022-09-28T02:44:26.241Z,9.73
2022-09-28T02:47:04.212Z,9.73
2022-09-28T02:49:34.417Z,9.74
2022-09-28T02:52:07.657Z,9.79
2022-09-28T02:54:54.069Z,9.87
2022-09-28T02:57:56.643Z,9.91
2022-09-28T03:00:24.436Z,9.92
2022-09-28T03:03:20.061Z,9.92
2022-09-28T03:06:09.395Z,9.93
2022-09-28T03:08:54.315Z,9.97
2022-09-28T03:11:46.912Z,9.94
2022-09-28T03:14:15.002Z,9.95
2022-09-28T03:16:46.081Z,9.97
2022-09-28T03:19:13.947Z,9.96
2022-09-28T03:21:41.643Z,9.97
2022-09-28T03:24:10.858Z,9.96
2022-09-28T03:26:38.671Z,9.95
2022-09-28T03:29:06.157Z,9.91
2022-09-28T03:31:34.914Z,9.86
2022-09-28T03:34:02.283Z,9.85
2022-09-28T03:36:29.864Z,9.86
2022-09-28T03:38:57.193Z,9.86
2022-09-28T03:41:24.548Z,9.85
2022-09-28T03:43:52.027Z,9.86
2022-09-28T03:46:19.321Z,9.85
2022-09-28T03:48:46.610Z,9.85
2022-09-28T03:51:13.827Z,9.85
2022-09-28T03:53:41.050Z,9.83
2022-09-28T03:56:12.730Z,9.80
2022-09-28T03:58:40.295Z,9.83
2022-09-28T04:01:16.551Z,9.83
2022-09-28T04:03:45.219Z,9.77
2022-09-28T04:06:13.582Z,9.70
2022-09-28T04:08:40.877Z,9.65
2022-09-28T04:11:08.094Z,9.66
2022-09-28T04:13:35.515Z,9.67
2022-09-28T04:16:03.528Z,9.64
2022-09-28T04:18:32.325Z,9.62
2022-09-28T04:21:03.073Z,9.57
2022-09-28T04:23:30.410Z,9.53
2022-09-28T04:25:57.619Z,9.49
2022-09-28T04:28:43.752Z,9.45
2022-09-28T04:31:13.543Z,9.44
2022-09-28T04:33:40.854Z,9.39
2022-09-28T04:36:09.116Z,9.36
2022-09-28T04:38:52.198Z,9.35
2022-09-28T04:41:24.930Z,9.34
2022-09-28T04:43:52.582Z,9.30
2022-09-28T04:46:19.952Z,9.27
2022-09-28T04:48:47.201Z,9.24
2022-09-28T04:51:14.477Z,9.23
2022-09-28T04:53:41.515Z,9.21
2022-09-28T04:56:12.198Z,9.19
2022-09-28T04:58:43.374Z,9.17
2022-09-28T05:01:16.877Z,9.17
2022-09-28T05:03:46.079Z,9.16
2022-09-28T05:06:15.295Z,9.16
2022-09-28T05:08:48.903Z,9.13
2022-09-28T05:11:18.074Z,9.10
2022-09-28T05:13:48.296Z,9.09
2022-09-28T05:16:16.804Z,9.10
2022-09-28T05:18:44.847Z,9.11
2022-09-28T05:21:15.258Z,9.12
2022-09-28T05:23:47.089Z,9.10
2022-09-28T05:26:15.327Z,9.09
2022-09-28T05:28:46.105Z,9.10
2022-09-28T05:31:15.353Z,9.11
2022-09-28T05:33:42.925Z,9.13
2022-09-28T05:36:13.749Z,9.12
2022-09-28T05:38:42.650Z,9.09
2022-09-28T05:41:10.106Z,9.05
2022-09-28T05:43:38.438Z,9.05
2022-09-28T05:46:08.671Z,9.01
2022-09-28T05:48:37.912Z,8.99
2022-09-28T05:51:06.304Z,8.97
2022-09-28T05:56:50.514Z,8.92
2022-09-28T05:59:17.989Z,8.92
2022-09-28T06:02:07.287Z,8.93
2022-09-28T06:05:19.917Z,8.96
2022-09-28T06:08:32.126Z,8.96
2022-09-28T06:11:07.979Z,8.99
2022-09-28T06:13:51.215Z,9.00
2022-09-28T06:20:03.975Z,9.03
2022-09-28T06:22:34.100Z,9.05
2022-09-28T06:25:11.089Z,9.08
2022-09-28T06:27:42.408Z,9.09
2022-09-28T06:30:10.571Z,9.07
2022-09-28T06:32:41.576Z,9.05
2022-09-28T06:35:09.903Z,9.02
2022-09-28T06:37:38.333Z,9.02
2022-09-28T06:40:06.192Z,9.02
2022-09-28T06:42:33.811Z,9.04
2022-09-28T06:45:05.989Z,9.03
2022-09-28T06:47:33.838Z,9.07
2022-09-28T06:50:53.458Z,9.10
2022-09-28T06:53:38.232Z,9.20
2022-09-28T06:56:14.682Z,9.27
2022-09-28T06:58:47.795Z,9.33
2022-09-28T07:01:16.154Z,9.34
2022-09-28T07:03:44.089Z,9.31
2022-09-28T07:06:12.886Z,9.27
2022-09-28T07:08:41.053Z,9.25
2022-09-28T07:11:08.629Z,9.24
2022-09-28T07:13:49.919Z,9.31
2022-09-28T07:16:26.771Z,9.38
2022-09-28T07:19:00.279Z,9.42
2022-09-28T07:21:30.697Z,9.45
2022-09-28T07:24:01.257Z,9.49
2022-09-28T07:26:29.029Z,9.56
2022-09-28T07:29:00.383Z,9.50
2022-09-28T07:31:29.102Z,9.46
2022-09-28T07:33:58.366Z,9.52
2022-09-28T07:36:31.622Z,9.61
2022-09-28T07:38:59.104Z,9.67
2022-09-28T07:41:35.663Z,9.70
2022-09-28T07:44:06.270Z,9.75
2022-09-28T07:46:37.534Z,9.69
2022-09-28T07:49:08.383Z,9.67
2022-09-28T07:51:38.673Z,9.73
2022-09-28T07:54:06.226Z,9.83
2022-09-28T07:56:36.266Z,9.90
2022-09-28T07:59:03.594Z,9.95
2022-09-28T08:01:30.944Z,9.97
2022-09-28T08:03:58.119Z,9.98
2022-09-28T08:06:25.131Z,10.01
2022-09-28T08:08:55.862Z,9.98
2022-09-28T08:11:22.765Z,10.01
2022-09-28T08:13:51.097Z,10.05
2022-09-28T08:16:18.605Z,10.06
2022-09-28T08:18:48.648Z,10.11
2022-09-28T08:21:34.200Z,10.18
2022-09-28T08:24:01.335Z,10.30
2022-09-28T08:26:28.952Z,10.35
2022-09-28T08:28:56.310Z,10.41
2022-09-28T08:31:23.282Z,10.44
2022-09-28T08:33:53.458Z,10.47
2022-09-28T08:36:20.661Z,10.51
2022-09-28T08:38:47.687Z,10.53
2022-09-28T08:41:34.563Z,10.59
2022-09-28T08:44:09.218Z,10.70
2022-09-28T08:46:42.076Z,10.76
2022-09-28T08:49:25.425Z,10.76
2022-09-28T08:51:59.067Z,10.71
2022-09-28T08:54:38.436Z,10.81
2022-09-28T08:57:11.125Z,10.94
2022-09-28T09:00:00.052Z,11.04
2022-09-28T09:02:34.076Z,11.18
2022-09-28T09:05:06.092Z,11.29
2022-09-28T09:08:00.499Z,11.35
2022-09-28T09:10:55.964Z,11.51
2022-09-28T09:13:38.400Z,11.65
2022-09-28T09:16:17.855Z,11.69
2022-09-28T09:19:17.080Z,11.71
2022-09-28T09:22:22.663Z,11.69
2022-09-28T09:24:54.725Z,11.64
2022-09-28T09:27:46.363Z,11.55
2022-09-28T09:30:21.667Z,11.49
2022-09-28T09:33:07.111Z,11.51
2022-09-28T09:36:26.023Z,11.50
2022-09-28T09:39:34.796Z,11.50
2022-09-28T09:42:50.912Z,11.64
2022-09-28T09:45:28.757Z,11.82
2022-09-28T09:48:07.374Z,11.93
2022-09-28T09:50:47.447Z,12.21
2022-09-28T09:53:18.778Z,12.38
2022-09-28T09:55:49.993Z,12.62
2022-09-28T09:58:17.150Z,13.50
2022-09-28T10:00:47.820Z,14.13
2022-09-28T10:03:36.346Z,14.08
2022-09-28T10:06:08.064Z,14.52
2022-09-28T10:08:48.685Z,14.23
2022-09-28T10:11:18.909Z,13.56
2022-09-28T10:14:30.306Z,13.52
2022-09-28T10:17:02.776Z,14.14
2022-09-28T10:19:42.818Z,14.68
2022-09-28T10:22:25.269Z,14.44
2022-09-28T10:24:57.401Z,13.96
2022-09-28T10:27:36.134Z,13.59
2022-09-28T10:30:19.678Z,13.19
2022-09-28T10:32:48.813Z,13.00
2022-09-28T10:35:19.974Z,12.89
2022-09-28T10:37:59.593Z,12.86
2022-09-28T10:49:17.264Z,13.01
2022-09-28T10:51:51.795Z,13.71
2022-09-28T10:54:26.683Z,14.42
2022-09-28T10:56:58.911Z,14.03
2022-09-28T10:59:31.318Z,13.65
2022-09-28T11:02:25.285Z,13.66
2022-09-28T11:04:59.166Z,13.51
2022-09-28T11:07:30.517Z,13.37
2022-09-28T11:09:59.846Z,13.09
2022-09-28T11:12:43.248Z,12.95
2022-09-28T11:15:19.258Z,12.91
2022-09-28T11:17:48.262Z,12.92
2022-09-28T11:20:27.795Z,13.05
2022-09-28T11:23:04.136Z,13.79
2022-09-28T11:25:35.097Z,14.72
2022-09-28T11:28:35.609Z,15.47
2022-09-28T11:31:21.835Z,15.46
2022-09-28T11:34:31.579Z,14.96
2022-09-28T11:37:29.489Z,14.55
2022-09-28T11:40:28.474Z,14.18
2022-09-28T11:43:08.063Z,14.04
2022-09-28T11:45:46.475Z,13.98
2022-09-28T11:48:33.572Z,13.88
2022-09-28T11:51:09.944Z,13.76
2022-09-28T11:54:15.313Z,13.59
2022-09-28T11:56:52.130Z,13.44
2022-09-28T11:59:29.581Z,13.36
2022-09-28T12:02:00.608Z,13.30
2022-09-28T12:04:35.431Z,13.16
2022-09-28T12:07:09.930Z,13.09
2022-09-28T12:10:15.650Z,13.08
2022-09-28T12:13:09.733Z,13.08
2022-09-28T12:16:12.772Z,12.96
2022-09-28T12:18:47.007Z,12.72
2022-09-28T12:21:38.587Z,12.64
2022-09-28T12:24:17.858Z,12.55
2022-09-28T12:27:00.286Z,12.53
2022-09-28T12:29:44.095Z,12.56
2022-09-28T12:32:35.336Z,12.82
2022-09-28T12:35:10.449Z,14.00
2022-09-28T12:37:56.357Z,15.06
2022-09-28T12:40:27.008Z,15.39
2022-09-28T12:43:28.762Z,16.10
2022-09-28T12:46:17.281Z,16.81
2022-09-28T12:49:47.304Z,17.23
2022-09-28T12:51:57.445Z,16.27
2022-09-28T12:54:38.495Z,15.52
2022-09-28T12:57:36.120Z,15.04
2022-09-28T13:00:23.285Z,15.17
2022-09-28T13:03:16.638Z,16.57
2022-09-28T13:06:08.058Z,17.31
2022-09-28T13:08:47.227Z,17.04
2022-09-28T13:11:45.428Z,17.26
2022-09-28T13:14:34.499Z,17.39
2022-09-28T13:17:13.591Z,17.85
2022-09-28T13:19:58.652Z,18.04
2022-09-28T13:22:25.876Z,18.00
2022-09-28T13:24:57.622Z,17.58
2022-09-28T13:27:45.121Z,17.87
2022-09-28T13:30:14.923Z,18.30
2022-09-28T13:32:43.696Z,18.25
2022-09-28T13:35:19.195Z,18.08
2022-09-28T13:37:47.612Z,17.91
2022-09-28T13:40:14.810Z,18.22
2022-09-28T13:42:45.986Z,18.11
2022-09-28T13:45:20.418Z,16.91
2022-09-28T13:47:52.231Z,16.29
2022-09-28T13:50:47.781Z,16.39
2022-09-28T13:53:21.392Z,16.06
2022-09-28T13:56:14.303Z,15.73
2022-09-28T13:58:48.008Z,15.46
2022-09-28T14:01:32.526Z,15.18
2022-09-28T14:04:23.401Z,14.95
2022-09-28T14:06:57.198Z,14.48
2022-09-28T14:09:42.510Z,14.29
2022-09-28T14:12:36.161Z,14.14
2022-09-28T14:15:26.371Z,14.04
2022-09-28T14:18:08.034Z,13.91
2022-09-28T14:20:36.585Z,13.71
2022-09-28T14:23:25.973Z,13.57
2022-09-28T14:26:20.441Z,13.43
2022-09-28T14:29:14.677Z,13.30
2022-09-28T14:31:43.450Z,13.18
2022-09-28T14:34:32.587Z,13.11
2022-09-28T14:37:20.365Z,13.07
2022-09-28T14:40:06.622Z,13.12
2022-09-28T14:42:36.075Z,13.24
2022-09-28T14:45:07.785Z,13.34
2022-09-28T14:47:38.070Z,13.38
2022-09-28T14:50:29.025Z,13.38
2022-09-28T14:53:13.396Z,13.37
2022-09-28T14:55:49.857Z,13.32
2022-09-28T14:58:22.073Z,13.28
2022-09-28T15:00:57.558Z,13.21
2022-09-28T15:03:29.672Z,13.13
2022-09-28T15:05:58.232Z,13.01
2022-09-28T15:08:36.931Z,12.97
2022-09-28T15:11:05.789Z,12.95
2022-09-28T15:13:33.287Z,12.94
2022-09-28T15:16:09.544Z,12.91
2022-09-28T15:19:15.629Z,12.89
2022-09-28T15:21:51.037Z,12.82
2022-09-28T15:24:33.280Z,12.78
2022-09-28T15:27:18.621Z,12.73
2022-09-28T15:29:59.350Z,12.68
2022-09-28T15:32:29.261Z,12.64
2022-09-28T15:34:58.122Z,12.61
2022-09-28T15:37:29.396Z,12.59
2022-09-28T15:39:59.087Z,12.61
2022-09-28T15:42:26.718Z,12.61
2022-09-28T15:45:22.849Z,12.58
2022-09-28T15:47:57.285Z,12.52
2022-09-28T15:50:28.927Z,12.46
2022-09-28T15:53:00.747Z,12.40
2022-09-28T15:55:44.564Z,12.34
2022-09-28T15:58:22.989Z,12.27
2022-09-28T16:01:12.515Z,12.17
2022-09-28T16:03:40.298Z,12.07
2022-09-28T16:06:10.312Z,11.98
2022-09-28T16:08:43.899Z,11.94
2022-09-28T16:11:28.903Z,11.91
2022-09-28T16:14:25.441Z,11.87
2022-09-28T16:16:55.367Z,11.78
2022-09-28T16:19:37.710Z,11.72
2022-09-28T16:22:11.615Z,11.68
2022-09-28T16:24:54.322Z,11.66
2022-09-28T16:27:41.506Z,11.65
2022-09-28T16:30:11.955Z,11.59
2022-09-28T16:32:53.015Z,11.53
2022-09-28T16:35:26.490Z,11.49
2022-09-28T16:37:58.199Z,11.46
2022-09-28T16:40:26.504Z,11.43
2022-09-28T16:42:57.414Z,11.40
2022-09-28T16:45:24.905Z,11.39
2022-09-28T16:47:55.103Z,11.36
2022-09-28T16:50:23.074Z,11.32
2022-09-28T16:53:17.193Z,11.29
2022-09-28T16:55:46.304Z,11.30
2022-09-28T16:58:13.710Z,11.30
2022-09-28T17:00:43.080Z,11.26
2022-09-28T17:03:19.140Z,11.24
2022-09-28T17:05:47.604Z,11.21
2022-09-28T17:08:17.721Z,11.18
2022-09-28T17:11:13.070Z,11.20
2022-09-28T17:13:41.560Z,11.18
2022-09-28T17:16:18.812Z,11.17
2022-09-28T17:18:48.561Z,11.17
2022-09-28T17:21:19.474Z,11.14
2022-09-28T17:23:53.489Z,11.12
2022-09-28T17:26:35.396Z,11.13
2022-09-28T17:29:03.026Z,11.16
2022-09-28T17:31:34.145Z,11.14
2022-09-28T17:34:02.839Z,11.14
2022-09-28T17:36:34.320Z,11.13
2022-09-28T17:39:01.584Z,11.07
2022-09-28T17:41:29.898Z,11.03
2022-09-28T17:43:58.410Z,11.01
2022-09-28T17:46:30.496Z,10.99
2022-09-28T17:49:08.540Z,10.98
2022-09-28T17:51:42.553Z,10.97
2022-09-28T17:54:12.677Z,10.98
2022-09-28T17:56:40.976Z,10.97
2022-09-28T17:59:13.904Z,10.97
2022-09-28T18:01:41.329Z,10.96
2022-09-28T18:04:27.672Z,10.95
2022-09-28T18:07:01.108Z,10.90
2022-09-28T18:09:28.954Z,10.88
2022-09-28T18:12:01.841Z,10.84
2022-09-28T18:14:30.081Z,10.80
2022-09-28T18:16:59.680Z,10.79
2022-09-28T18:19:31.743Z,10.77
2022-09-28T18:22:01.509Z,10.74
2022-09-28T18:24:29.621Z,10.71
2022-09-28T18:26:57.787Z,10.67
2022-09-28T18:29:32.870Z,10.62
2022-09-28T18:32:02.885Z,10.56
2022-09-28T18:34:31.761Z,10.51
2022-09-28T18:37:00.234Z,10.42
2022-09-28T18:39:27.320Z,10.32
2022-09-28T18:41:58.585Z,10.19
2022-09-28T18:44:32.585Z,10.10
2022-09-28T18:47:02.960Z,10.03
2022-09-28T18:49:33.190Z,10.00
2022-09-28T18:52:01.246Z,9.93
2022-09-28T18:54:28.221Z,9.84
2022-09-28T18:56:58.231Z,9.76
2022-09-28T18:59:26.331Z,9.70
2022-09-28T19:01:56.271Z,9.65
2022-09-28T19:04:23.779Z,9.64
2022-09-28T19:06:54.882Z,9.60
2022-09-28T19:09:26.197Z,9.55
2022-09-28T19:11:53.967Z,9.47
2022-09-28T19:14:24.507Z,9.44
2022-09-28T19:16:51.701Z,9.38
2022-09-28T19:19:20.719Z,9.33
2022-09-28T19:21:48.342Z,9.32
2022-09-28T19:24:21.085Z,9.38
2022-09-28T19:26:54.841Z,9.43
2022-09-28T19:29:23.434Z,9.45
2022-09-28T19:31:51.522Z,9.45
2022-09-28T19:34:24.000Z,9.46
2022-09-28T19:36:51.264Z,9.46
2022-09-28T19:39:18.790Z,9.46
2022-09-28T19:41:53.449Z,9.52
2022-09-28T19:44:27.910Z,9.55
2022-09-28T19:47:07.174Z,9.55
2022-09-28T19:49:42.038Z,9.48
2022-09-28T19:52:21.670Z,9.45
2022-09-28T19:55:00.149Z,9.43
2022-09-28T19:57:32.293Z,9.42
2022-09-28T20:00:07.928Z,9.39
2022-09-28T20:02:38.970Z,9.37
2022-09-28T20:05:07.613Z,9.32
2022-09-28T20:07:36.652Z,9.31
2022-09-28T20:10:06.822Z,9.30
2022-09-28T20:12:42.109Z,9.32
2022-09-28T20:15:16.310Z,9.34
2022-09-28T20:17:45.932Z,9.33
2022-09-28T20:20:15.348Z,9.30
2022-09-28T20:22:44.450Z,9.29
2022-09-28T20:25:13.798Z,9.33
2022-09-28T20:27:42.669Z,9.38
2022-09-28T20:30:11.961Z,9.38
2022-09-28T20:32:39.438Z,9.35
2022-09-28T20:35:07.274Z,9.29
2022-09-28T20:37:34.481Z,9.24
2022-09-28T20:40:01.841Z,9.24
2022-09-28T20:42:30.905Z,9.20
2022-09-28T20:44:58.860Z,9.19
2022-09-28T20:47:25.860Z,9.16
2022-09-28T20:49:52.931Z,9.08
2022-09-28T20:52:20.185Z,9.03
2022-09-28T20:54:47.390Z,9.04
2022-09-28T20:57:17.663Z,9.05
2022-09-28T20:59:52.276Z,9.07
2022-09-28T21:02:22.290Z,8.99
2022-09-28T21:04:49.862Z,8.90
2022-09-28T21:07:16.966Z,8.85
2022-09-28T21:09:44.095Z,8.80
2022-09-28T21:12:12.495Z,8.79
2022-09-28T21:14:39.652Z,8.78
2022-09-28T21:17:06.874Z,8.75
2022-09-28T21:19:34.005Z,8.73
2022-09-28T21:22:01.324Z,8.73
2022-09-28T21:24:28.492Z,8.68
2022-09-28T21:26:55.788Z,8.65
2022-09-28T21:29:22.865Z,8.63
2022-09-28T21:31:50.037Z,8.62
2022-09-28T21:34:19.623Z,8.59
2022-09-28T21:36:50.721Z,8.58
2022-09-28T21:39:19.655Z,8.56
2022-09-28T21:41:46.835Z,8.48
2022-09-28T21:44:14.085Z,8.32
2022-09-28T21:46:41.664Z,8.17
2022-09-28T21:49:12.302Z,8.05
2022-09-28T21:51:39.356Z,7.97
2022-09-28T21:54:06.633Z,7.94
2022-09-28T21:56:33.806Z,7.90
2022-09-28T21:59:01.173Z,7.82
2022-09-28T22:01:28.960Z,7.79
2022-09-28T22:03:57.809Z,7.77
2022-09-28T22:06:30.992Z,7.75
2022-09-28T22:08:59.159Z,7.77
2022-09-28T22:11:29.263Z,7.76
2022-09-28T22:13:59.735Z,7.72
2022-09-28T22:16:30.128Z,7.69
2022-09-28T22:18:58.831Z,7.66
2022-09-28T22:21:28.497Z,7.64
2022-09-28T22:24:01.153Z,7.64
2022-09-28T22:26:30.736Z,7.66
2022-09-28T22:29:00.819Z,7.67
2022-09-28T22:31:31.500Z,7.66
2022-09-28T22:33:58.661Z,7.67
2022-09-28T22:36:27.110Z,7.70
2022-09-28T22:38:56.058Z,7.72
2022-09-28T22:41:24.803Z,7.72
2022-09-28T22:43:54.528Z,7.67
2022-09-28T22:46:25.219Z,7.61
2022-09-28T22:48:55.401Z,7.61
2022-09-28T22:51:24.158Z,7.60
2022-09-28T22:53:51.804Z,7.59
2022-09-28T22:56:20.481Z,7.56
2022-09-28T22:58:47.854Z,7.53
2022-09-28T23:01:21.621Z,7.58
2022-09-28T23:03:50.655Z,7.61
2022-09-28T23:06:20.832Z,7.63
2022-09-28T23:08:51.234Z,7.63
2022-09-28T23:11:18.947Z,7.60
2022-09-28T23:13:51.452Z,7.57
2022-09-28T23:16:20.022Z,7.58
2022-09-28T23:18:49.419Z,7.60
2022-09-28T23:21:19.384Z,7.61
2022-09-28T23:23:52.151Z,7.66
2022-09-28T23:26:24.166Z,7.71
2022-09-28T23:28:53.257Z,7.73
2022-09-28T23:31:23.637Z,7.73
2022-09-28T23:33:51.773Z,7.74
2022-09-28T23:36:19.656Z,7.73
2022-09-28T23:38:47.637Z,7.72
2022-09-28T23:41:15.013Z,7.74
2022-09-28T23:43:42.224Z,7.72
2022-09-28T23:46:09.698Z,7.72
2022-09-28T23:48:37.004Z,7.71
2022-09-28T23:51:04.547Z,7.65
2022-09-28T23:53:31.999Z,7.59
2022-09-28T23:55:59.561Z,7.52
2022-09-28T23:58:27.314Z,7.46
